createdAt,value
2019-03-31T00:00:28.812Z,10.81
2019-03-31T00:01:28.821Z,10.82
2019-03-31T00:02:28.779Z,10.84
2019-03-31T00:03:28.761Z,10.76
2019-03-31T00:04:28.760Z,10.79
2019-03-31T00:05:28.764Z,10.74
2019-03-31T00:06:28.747Z,10.71
2019-03-31T00:07:28.720Z,10.71
2019-03-31T00:08:28.710Z,10.78
2019-03-31T00:09:28.696Z,10.78
2019-03-31T00:10:28.718Z,10.68
2019-03-31T00:11:28.703Z,10.71
2019-03-31T00:12:28.663Z,10.68
2019-03-31T00:13:28.655Z,10.71
2019-03-31T00:14:28.647Z,10.68
2019-03-31T00:15:28.630Z,10.66
2019-03-31T00:16:28.646Z,10.60
2019-03-31T00:17:28.608Z,10.64
2019-03-31T00:18:28.593Z,10.64
2019-03-31T00:19:28.581Z,10.64
2019-03-31T00:20:28.573Z,10.63
2019-03-31T00:21:28.581Z,10.63
2019-03-31T00:22:28.550Z,10.56
2019-03-31T00:23:28.547Z,10.60
2019-03-31T00:24:28.527Z,10.59
2019-03-31T00:25:28.523Z,10.61
2019-03-31T00:26:28.527Z,10.60
2019-03-31T00:27:28.491Z,10.59
2019-03-31T00:28:28.480Z,10.52
2019-03-31T00:29:28.473Z,10.59
2019-03-31T00:30:28.463Z,10.56
2019-03-31T00:31:28.474Z,10.59
2019-03-31T00:32:28.445Z,10.52
2019-03-31T00:33:28.429Z,10.56
2019-03-31T00:34:28.432Z,10.61
2019-03-31T00:35:28.401Z,10.55
2019-03-31T00:36:28.422Z,10.47
2019-03-31T00:37:28.384Z,10.61
2019-03-31T00:38:28.368Z,10.66
2019-03-31T00:39:28.354Z,10.63
2019-03-31T00:40:28.364Z,10.60
2019-03-31T00:41:28.363Z,10.56
2019-03-31T00:42:28.325Z,10.51
2019-03-31T00:43:28.313Z,10.44
2019-03-31T00:44:28.300Z,10.45
2019-03-31T00:45:28.300Z,10.45
2019-03-31T00:46:28.315Z,10.41
2019-03-31T00:47:28.270Z,10.41
2019-03-31T00:48:28.259Z,10.32
2019-03-31T00:49:28.255Z,10.23
2019-03-31T00:50:28.946Z,10.27
2019-03-31T00:51:28.269Z,10.29
2019-03-31T00:52:28.219Z,10.26
2019-03-31T00:53:28.199Z,10.22
2019-03-31T00:54:28.196Z,10.22
2019-03-31T00:55:28.174Z,10.25
2019-03-31T00:56:28.173Z,10.09
2019-03-31T00:57:28.175Z,10.17
2019-03-31T00:58:28.146Z,10.17
2019-03-31T00:59:28.137Z,10.14
2019-03-31T01:00:28.124Z,10.07
2019-03-31T01:01:36.225Z,10.12
2019-03-31T01:02:29.123Z,10.11
2019-03-31T01:03:28.087Z,10.05
2019-03-31T01:04:28.079Z,10.08
2019-03-31T01:05:28.066Z,10.08
2019-03-31T01:06:28.070Z,10.04
2019-03-31T01:07:28.075Z,10.05
2019-03-31T01:08:28.040Z,10.08
2019-03-31T01:09:28.075Z,10.08
2019-03-31T01:10:28.013Z,9.96
2019-03-31T01:11:27.996Z,9.97
2019-03-31T01:12:28.004Z,9.94
2019-03-31T01:13:27.981Z,10.02
2019-03-31T01:14:27.963Z,9.96
2019-03-31T01:15:27.954Z,9.91
2019-03-31T01:16:27.946Z,9.86
2019-03-31T01:17:27.948Z,9.89
2019-03-31T01:18:27.919Z,9.79
2019-03-31T01:19:27.917Z,9.87
2019-03-31T01:20:27.895Z,9.78
2019-03-31T01:21:27.889Z,9.74
2019-03-31T01:22:27.894Z,9.83
2019-03-31T01:23:27.880Z,9.79
2019-03-31T01:24:27.857Z,9.76
2019-03-31T01:25:27.842Z,9.78
2019-03-31T01:26:27.827Z,9.72
2019-03-31T01:27:27.833Z,9.69
2019-03-31T01:28:27.810Z,9.74
2019-03-31T01:29:27.800Z,9.78
2019-03-31T01:30:27.789Z,9.74
2019-03-31T01:31:28.478Z,9.75
2019-03-31T01:32:27.778Z,9.76
2019-03-31T01:33:27.753Z,9.64
2019-03-31T01:34:27.741Z,9.72
2019-03-31T01:35:27.727Z,9.72
2019-03-31T01:36:27.729Z,9.76
2019-03-31T01:37:27.740Z,9.72
2019-03-31T01:38:27.710Z,9.71
2019-03-31T01:39:27.684Z,9.75
2019-03-31T01:40:27.673Z,9.69
2019-03-31T01:41:27.658Z,9.66
2019-03-31T01:42:27.656Z,9.74
2019-03-31T01:43:27.658Z,9.72
2019-03-31T01:44:27.645Z,9.69
2019-03-31T01:45:27.614Z,9.86
2019-03-31T01:46:27.601Z,9.75
2019-03-31T01:47:27.606Z,9.90
2019-03-31T01:48:27.607Z,9.99
2019-03-31T01:49:27.568Z,10.05
2019-03-31T01:50:27.561Z,10.08
2019-03-31T01:51:27.551Z,10.05
2019-03-31T01:52:27.532Z,10.14
2019-03-31T01:53:27.553Z,10.20
2019-03-31T01:54:27.513Z,10.29
2019-03-31T01:55:27.503Z,10.26
2019-03-31T01:56:27.487Z,10.33
2019-03-31T01:57:27.500Z,10.34
2019-03-31T01:58:27.492Z,10.51
2019-03-31T01:59:27.464Z,10.51
2019-03-31T02:00:27.447Z,10.45
2019-03-31T02:01:27.431Z,10.52
2019-03-31T02:02:27.478Z,10.45
2019-03-31T02:03:27.433Z,10.48
2019-03-31T02:04:27.408Z,10.53
2019-03-31T02:05:27.385Z,10.61
2019-03-31T02:06:27.381Z,10.52
2019-03-31T02:07:27.368Z,10.55
2019-03-31T02:08:27.370Z,10.60
2019-03-31T02:09:27.340Z,10.64
2019-03-31T02:10:27.339Z,10.68
2019-03-31T02:11:27.323Z,10.66
2019-03-31T02:12:27.316Z,10.71
2019-03-31T02:13:27.324Z,10.66
2019-03-31T02:14:27.288Z,10.68
2019-03-31T02:15:27.276Z,10.76
2019-03-31T02:16:27.278Z,10.74
2019-03-31T02:17:27.249Z,10.63
2019-03-31T02:18:27.260Z,10.71
2019-03-31T02:19:27.232Z,10.68
2019-03-31T02:20:27.220Z,10.74
2019-03-31T02:21:27.210Z,10.74
2019-03-31T02:22:27.194Z,10.78
2019-03-31T02:23:27.205Z,10.70
2019-03-31T02:24:27.176Z,10.70
2019-03-31T02:25:27.162Z,10.68
2019-03-31T02:26:27.155Z,10.56
2019-03-31T02:27:27.145Z,10.61
2019-03-31T02:28:27.148Z,10.59
2019-03-31T02:29:27.117Z,10.55
2019-03-31T02:30:27.107Z,10.51
2019-03-31T02:31:27.095Z,10.53
2019-03-31T02:32:27.086Z,10.55
2019-03-31T02:33:27.092Z,10.51
2019-03-31T02:34:27.061Z,10.52
2019-03-31T02:35:27.046Z,10.44
2019-03-31T02:36:27.042Z,10.45
2019-03-31T02:37:27.026Z,10.51
2019-03-31T02:38:27.030Z,10.45
2019-03-31T02:39:27.008Z,10.44
2019-03-31T02:40:27.000Z,10.52
2019-03-31T02:41:26.979Z,10.51
2019-03-31T02:42:26.968Z,10.51
2019-03-31T02:43:26.989Z,10.41
2019-03-31T02:44:26.952Z,10.42
2019-03-31T02:45:26.940Z,10.36
2019-03-31T02:46:26.925Z,10.34
2019-03-31T02:47:26.921Z,10.29
2019-03-31T02:48:26.930Z,10.33
2019-03-31T02:49:26.899Z,10.30
2019-03-31T02:50:26.877Z,10.29
2019-03-31T02:51:26.874Z,10.29
2019-03-31T02:52:26.865Z,10.29
2019-03-31T02:53:26.874Z,10.25
2019-03-31T02:54:26.836Z,10.25
2019-03-31T02:55:26.834Z,10.18
2019-03-31T02:56:26.816Z,10.18
2019-03-31T02:57:26.798Z,10.14
2019-03-31T02:58:26.821Z,10.09
2019-03-31T02:59:26.783Z,10.11
2019-03-31T03:00:26.767Z,10.15
2019-03-31T03:01:26.760Z,10.15
2019-03-31T03:02:40.529Z,10.05
2019-03-31T03:03:27.753Z,10.07
2019-03-31T03:04:26.739Z,10.01
2019-03-31T03:05:26.721Z,10.02
2019-03-31T03:06:26.704Z,9.93
2019-03-31T03:07:26.689Z,9.94
2019-03-31T03:08:26.676Z,9.94
2019-03-31T03:09:26.682Z,9.94
2019-03-31T03:10:26.658Z,9.99
2019-03-31T03:11:26.641Z,9.89
2019-03-31T03:12:26.636Z,9.96
2019-03-31T03:13:26.618Z,9.91
2019-03-31T03:14:26.626Z,9.84
2019-03-31T03:15:26.598Z,9.93
2019-03-31T03:16:26.592Z,9.78
2019-03-31T03:17:26.574Z,9.78
2019-03-31T03:18:26.571Z,9.78
2019-03-31T03:19:26.573Z,9.81
2019-03-31T03:20:26.545Z,9.71
2019-03-31T03:21:26.533Z,9.79
2019-03-31T03:22:26.521Z,9.75
2019-03-31T03:23:26.510Z,9.75
2019-03-31T03:24:26.520Z,9.79
2019-03-31T03:25:26.483Z,9.81
2019-03-31T03:26:26.486Z,9.72
2019-03-31T03:27:26.470Z,9.72
2019-03-31T03:28:26.447Z,9.74
2019-03-31T03:29:26.456Z,9.72
2019-03-31T03:30:26.516Z,9.79
2019-03-31T03:31:26.418Z,9.79
2019-03-31T03:32:26.413Z,9.74
2019-03-31T03:33:26.410Z,9.81
2019-03-31T03:34:26.402Z,9.75
2019-03-31T03:35:26.368Z,9.75
2019-03-31T03:36:26.366Z,9.83
2019-03-31T03:37:26.352Z,9.87
2019-03-31T03:38:26.353Z,9.78
2019-03-31T03:39:26.359Z,9.90
2019-03-31T03:40:26.324Z,9.89
2019-03-31T03:41:26.307Z,9.76
2019-03-31T03:42:26.291Z,9.93
2019-03-31T03:43:26.277Z,9.75
2019-03-31T03:44:26.326Z,9.91
2019-03-31T03:45:26.259Z,9.87
2019-03-31T03:46:26.251Z,9.87
2019-03-31T03:47:26.235Z,9.78
2019-03-31T03:48:26.226Z,9.81
2019-03-31T03:49:26.230Z,9.74
2019-03-31T03:50:26.202Z,9.75
2019-03-31T03:51:26.195Z,9.79
2019-03-31T03:52:26.180Z,9.72
2019-03-31T03:53:26.171Z,9.78
2019-03-31T03:54:26.174Z,9.64
2019-03-31T03:55:26.172Z,9.65
2019-03-31T03:56:29.010Z,9.53
2019-03-31T03:57:26.128Z,9.57
2019-03-31T03:58:26.110Z,9.60
2019-03-31T03:59:26.101Z,9.53
2019-03-31T04:00:26.109Z,9.58
2019-03-31T04:01:26.080Z,9.53
2019-03-31T04:02:26.062Z,9.57
2019-03-31T04:03:30.501Z,9.47
2019-03-31T04:04:27.049Z,9.58
2019-03-31T04:05:26.057Z,9.58
2019-03-31T04:06:26.027Z,9.58
2019-03-31T04:07:26.010Z,9.51
2019-03-31T04:08:26.003Z,9.58
2019-03-31T04:09:26.002Z,9.48
2019-03-31T04:10:26.002Z,9.60
2019-03-31T04:11:26.013Z,9.56
2019-03-31T04:12:25.982Z,9.48
2019-03-31T04:13:25.942Z,9.60
2019-03-31T04:14:25.961Z,9.50
2019-03-31T04:15:25.943Z,9.48
2019-03-31T04:16:25.951Z,9.48
2019-03-31T04:17:25.896Z,9.46
2019-03-31T04:18:25.903Z,9.47
2019-03-31T04:19:25.878Z,9.46
2019-03-31T04:20:25.886Z,9.46
2019-03-31T04:21:25.851Z,9.38
2019-03-31T04:22:25.843Z,9.39
2019-03-31T04:23:25.833Z,9.39
2019-03-31T04:24:25.820Z,9.43
2019-03-31T04:25:25.849Z,9.38
2019-03-31T04:26:25.800Z,9.38
2019-03-31T04:27:25.790Z,9.42
2019-03-31T04:28:25.773Z,9.33
2019-03-31T04:29:25.777Z,9.29
2019-03-31T04:30:25.783Z,9.35
2019-03-31T04:31:25.748Z,9.39
2019-03-31T04:32:25.725Z,9.26
2019-03-31T04:33:25.719Z,9.29
2019-03-31T04:34:25.720Z,9.21
2019-03-31T04:35:25.729Z,9.17
2019-03-31T04:36:25.682Z,9.31
2019-03-31T04:37:25.686Z,9.20
2019-03-31T04:38:25.662Z,9.32
2019-03-31T04:39:25.688Z,9.21
2019-03-31T04:40:25.638Z,9.23
2019-03-31T04:41:25.644Z,9.26
2019-03-31T04:42:25.613Z,9.31
2019-03-31T04:43:25.604Z,9.33
2019-03-31T04:44:25.596Z,9.28
2019-03-31T04:45:25.585Z,9.28
2019-03-31T04:46:25.590Z,9.29
2019-03-31T04:47:25.555Z,9.24
2019-03-31T04:48:25.557Z,9.29
2019-03-31T04:49:25.637Z,9.32
2019-03-31T04:50:25.526Z,9.28
2019-03-31T04:51:25.540Z,9.18
2019-03-31T04:52:25.505Z,9.24
2019-03-31T04:53:25.491Z,9.17
2019-03-31T04:54:25.492Z,9.20
2019-03-31T04:55:25.475Z,9.17
2019-03-31T04:56:25.581Z,9.17
2019-03-31T04:57:25.445Z,9.15
2019-03-31T04:58:25.433Z,9.14
2019-03-31T04:59:25.428Z,9.20
2019-03-31T05:00:25.411Z,9.13
2019-03-31T05:01:25.416Z,9.18
2019-03-31T05:02:27.141Z,9.17
2019-03-31T05:03:25.379Z,9.14
2019-03-31T05:04:25.370Z,9.17
2019-03-31T05:05:25.356Z,9.14
2019-03-31T05:06:25.367Z,9.18
2019-03-31T05:07:25.335Z,9.20
2019-03-31T05:08:25.323Z,9.11
2019-03-31T05:09:25.315Z,9.14
2019-03-31T05:10:25.305Z,9.15
2019-03-31T05:11:25.313Z,9.13
2019-03-31T05:12:25.280Z,9.13
2019-03-31T05:13:25.275Z,9.13
2019-03-31T05:14:25.259Z,9.14
2019-03-31T05:15:25.246Z,9.08
2019-03-31T05:16:25.263Z,9.13
2019-03-31T05:17:25.221Z,9.05
2019-03-31T05:18:25.203Z,9.10
2019-03-31T05:19:25.195Z,9.10
2019-03-31T05:20:25.194Z,9.10
2019-03-31T05:21:25.174Z,9.10
2019-03-31T05:22:25.181Z,9.10
2019-03-31T05:23:25.151Z,9.05
2019-03-31T05:24:25.141Z,8.95
2019-03-31T05:25:25.129Z,8.99
2019-03-31T05:26:25.117Z,8.95
2019-03-31T05:27:25.127Z,9.04
2019-03-31T05:28:25.105Z,9.10
2019-03-31T05:29:25.088Z,8.99
2019-03-31T05:30:25.074Z,9.01
2019-03-31T05:31:25.064Z,9.05
2019-03-31T05:32:25.067Z,8.98
2019-03-31T05:33:25.043Z,8.98
2019-03-31T05:34:25.026Z,9.05
2019-03-31T05:35:27.064Z,9.02
2019-03-31T05:36:25.006Z,9.01
2019-03-31T05:37:25.011Z,9.05
2019-03-31T05:38:24.983Z,9.01
2019-03-31T05:39:24.980Z,9.02
2019-03-31T05:40:24.967Z,9.05
2019-03-31T05:41:24.952Z,8.96
2019-03-31T05:42:24.960Z,9.01
2019-03-31T05:43:24.927Z,8.98
2019-03-31T05:44:24.915Z,8.95
2019-03-31T05:45:24.907Z,8.89
2019-03-31T05:46:24.898Z,8.86
2019-03-31T05:47:24.895Z,8.86
2019-03-31T05:48:24.867Z,8.87
2019-03-31T05:49:24.864Z,8.89
2019-03-31T05:50:24.847Z,8.80
2019-03-31T05:51:24.835Z,8.81
2019-03-31T05:52:24.841Z,8.83
2019-03-31T05:53:24.814Z,8.86
2019-03-31T05:54:24.822Z,8.81
2019-03-31T05:55:24.791Z,8.83
2019-03-31T05:56:24.780Z,8.83
2019-03-31T05:57:24.814Z,8.76
2019-03-31T05:58:24.755Z,8.83
2019-03-31T05:59:24.741Z,8.73
2019-03-31T06:00:24.731Z,8.66
2019-03-31T06:01:24.727Z,8.73
2019-03-31T06:02:24.730Z,8.66
2019-03-31T06:03:24.708Z,8.66
2019-03-31T06:04:33.065Z,8.76
2019-03-31T06:05:25.679Z,8.81
2019-03-31T06:06:24.669Z,8.66
2019-03-31T06:07:24.676Z,8.70
2019-03-31T06:08:24.639Z,8.70
2019-03-31T06:09:24.635Z,8.74
2019-03-31T06:10:24.626Z,8.79
2019-03-31T06:11:24.623Z,8.71
2019-03-31T06:12:24.621Z,8.65
2019-03-31T06:13:24.595Z,8.65
2019-03-31T06:14:24.575Z,8.62
2019-03-31T06:15:24.564Z,8.41
2019-03-31T06:16:24.557Z,8.45
2019-03-31T06:17:24.571Z,8.55
2019-03-31T06:18:24.544Z,8.56
2019-03-31T06:19:24.520Z,8.55
2019-03-31T06:20:24.507Z,8.68
2019-03-31T06:21:24.495Z,8.56
2019-03-31T06:22:24.515Z,8.59
2019-03-31T06:23:24.483Z,8.62
2019-03-31T06:24:24.466Z,8.70
2019-03-31T06:25:24.455Z,8.66
2019-03-31T06:26:24.437Z,8.65
2019-03-31T06:27:24.427Z,8.74
2019-03-31T06:28:24.435Z,8.76
2019-03-31T06:29:24.437Z,8.77
2019-03-31T06:30:24.407Z,8.74
2019-03-31T06:31:24.390Z,8.81
2019-03-31T06:32:24.371Z,8.83
2019-03-31T06:33:24.383Z,8.83
2019-03-31T06:34:24.354Z,8.66
2019-03-31T06:35:24.338Z,8.79
2019-03-31T06:36:24.334Z,8.79
2019-03-31T06:37:24.321Z,8.74
2019-03-31T06:38:24.321Z,8.66
2019-03-31T06:39:24.293Z,8.65
2019-03-31T06:40:24.285Z,8.66
2019-03-31T06:41:24.284Z,8.71
2019-03-31T06:42:24.257Z,8.70
2019-03-31T06:43:24.267Z,8.71
2019-03-31T06:44:24.232Z,8.76
2019-03-31T06:45:24.224Z,8.83
2019-03-31T06:46:24.230Z,8.83
2019-03-31T06:47:24.208Z,8.80
2019-03-31T06:48:24.221Z,8.76
2019-03-31T06:49:24.183Z,8.77
2019-03-31T06:50:24.168Z,8.81
2019-03-31T06:51:24.159Z,8.91
2019-03-31T06:52:24.151Z,8.89
2019-03-31T06:53:24.165Z,8.91
2019-03-31T06:54:24.125Z,8.89
2019-03-31T06:55:24.117Z,9.02
2019-03-31T06:56:24.117Z,9.04
2019-03-31T06:57:24.097Z,9.08
2019-03-31T06:58:24.082Z,9.13
2019-03-31T06:59:24.094Z,9.13
2019-03-31T07:00:24.058Z,9.20
2019-03-31T07:01:24.044Z,9.20
2019-03-31T07:02:24.038Z,9.21
2019-03-31T07:03:24.024Z,9.35
2019-03-31T07:04:24.080Z,9.36
2019-03-31T07:05:24.002Z,9.36
2019-03-31T07:06:23.985Z,9.48
2019-03-31T07:07:24.142Z,9.53
2019-03-31T07:08:23.964Z,9.53
2019-03-31T07:09:23.986Z,9.53
2019-03-31T07:10:23.949Z,9.58
2019-03-31T07:11:23.933Z,9.61
2019-03-31T07:12:23.918Z,9.68
2019-03-31T07:13:23.912Z,9.71
2019-03-31T07:14:23.929Z,9.84
2019-03-31T07:15:23.900Z,9.89
2019-03-31T07:16:23.875Z,9.89
2019-03-31T07:17:23.870Z,9.75
2019-03-31T07:18:23.854Z,9.66
2019-03-31T07:19:23.855Z,9.53
2019-03-31T07:20:23.836Z,9.57
2019-03-31T07:21:23.825Z,9.57
2019-03-31T07:22:24.435Z,9.51
2019-03-31T07:23:23.803Z,9.51
2019-03-31T07:24:23.823Z,9.64
2019-03-31T07:25:23.779Z,9.61
2019-03-31T07:26:23.764Z,9.54
2019-03-31T07:27:23.752Z,9.57
2019-03-31T07:28:23.747Z,9.61
2019-03-31T07:29:23.751Z,9.56
2019-03-31T07:30:23.728Z,9.60
2019-03-31T07:31:23.718Z,9.78
2019-03-31T07:32:23.695Z,9.76
2019-03-31T07:33:23.684Z,9.72
2019-03-31T07:34:23.693Z,9.79
2019-03-31T07:35:23.667Z,9.89
2019-03-31T07:36:23.780Z,9.99
2019-03-31T07:37:23.640Z,9.99
2019-03-31T07:38:23.687Z,10.17
2019-03-31T07:39:23.829Z,10.27
2019-03-31T07:40:23.654Z,10.22
2019-03-31T07:41:23.928Z,10.26
2019-03-31T07:42:23.650Z,10.22
2019-03-31T07:43:23.573Z,10.29
2019-03-31T07:44:23.589Z,10.42
2019-03-31T07:45:23.553Z,10.44
2019-03-31T07:46:23.549Z,10.33
2019-03-31T07:47:23.534Z,10.33
2019-03-31T07:48:23.516Z,10.34
2019-03-31T07:49:23.543Z,10.29
2019-03-31T07:50:23.499Z,10.32
2019-03-31T07:51:23.485Z,10.27
2019-03-31T07:52:23.474Z,10.32
2019-03-31T07:53:23.465Z,10.29
2019-03-31T07:54:23.479Z,10.33
2019-03-31T07:55:23.440Z,10.30
2019-03-31T07:56:23.445Z,10.29
2019-03-31T07:57:23.415Z,10.41
2019-03-31T07:58:23.449Z,10.45
2019-03-31T07:59:23.439Z,10.33
2019-03-31T08:00:23.406Z,10.44
2019-03-31T08:01:23.514Z,10.51
2019-03-31T08:02:23.365Z,10.52
2019-03-31T08:03:23.349Z,10.56
2019-03-31T08:04:23.334Z,10.59
2019-03-31T08:05:32.929Z,10.60
2019-03-31T08:06:24.310Z,10.55
2019-03-31T08:07:23.304Z,10.59
2019-03-31T08:08:23.287Z,10.64
2019-03-31T08:09:23.276Z,10.59
2019-03-31T08:10:23.286Z,10.59
2019-03-31T08:11:23.256Z,10.64
2019-03-31T08:12:23.243Z,10.73
2019-03-31T08:13:23.233Z,10.78
2019-03-31T08:14:23.218Z,10.76
2019-03-31T08:15:23.232Z,10.70
2019-03-31T08:16:23.199Z,10.79
2019-03-31T08:17:23.186Z,10.76
2019-03-31T08:18:23.174Z,10.59
2019-03-31T08:19:23.166Z,10.55
2019-03-31T08:20:23.173Z,10.47
2019-03-31T08:21:23.142Z,10.51
2019-03-31T08:22:23.129Z,10.44
2019-03-31T08:23:23.144Z,10.36
2019-03-31T08:24:23.109Z,10.38
2019-03-31T08:25:23.113Z,10.45
2019-03-31T08:26:23.081Z,10.40
2019-03-31T08:27:23.076Z,10.64
2019-03-31T08:28:23.062Z,10.60
2019-03-31T08:29:23.048Z,10.63
2019-03-31T08:30:23.059Z,10.78
2019-03-31T08:31:23.024Z,10.76
2019-03-31T08:32:23.020Z,10.76
2019-03-31T08:33:23.008Z,10.76
2019-03-31T08:34:22.994Z,10.68
2019-03-31T08:35:23.002Z,10.70
2019-03-31T08:36:22.976Z,10.53
2019-03-31T08:37:22.958Z,10.56
2019-03-31T08:38:24.510Z,10.59
2019-03-31T08:39:22.933Z,10.60
2019-03-31T08:40:22.931Z,10.71
2019-03-31T08:41:22.932Z,10.76
2019-03-31T08:42:22.904Z,10.74
2019-03-31T08:43:22.896Z,10.73
2019-03-31T08:44:22.877Z,10.74
2019-03-31T08:45:22.870Z,10.94
2019-03-31T08:46:22.871Z,11.02
2019-03-31T08:47:22.844Z,11.02
2019-03-31T08:48:22.829Z,11.11
2019-03-31T08:49:22.824Z,11.42
2019-03-31T08:50:22.811Z,11.55
2019-03-31T08:51:22.829Z,11.75
2019-03-31T08:52:22.790Z,11.86
2019-03-31T08:53:22.851Z,11.80
2019-03-31T08:54:22.765Z,11.82
2019-03-31T08:55:22.754Z,11.70
2019-03-31T08:56:22.761Z,11.73
2019-03-31T08:57:22.729Z,11.54
2019-03-31T08:58:22.723Z,11.49
2019-03-31T08:59:22.728Z,11.40
2019-03-31T09:00:22.706Z,11.25
2019-03-31T09:01:22.711Z,11.22
2019-03-31T09:02:22.693Z,11.29
2019-03-31T09:03:22.670Z,11.35
2019-03-31T09:04:22.657Z,11.33
2019-03-31T09:05:22.641Z,11.37
2019-03-31T09:06:22.811Z,11.42
2019-03-31T09:07:22.623Z,11.47
2019-03-31T09:08:22.617Z,11.43
2019-03-31T09:09:22.595Z,11.43
2019-03-31T09:10:22.587Z,11.40
2019-03-31T09:11:23.088Z,11.32
2019-03-31T09:12:22.572Z,11.21
2019-03-31T09:13:22.557Z,11.18
2019-03-31T09:14:22.542Z,11.15
2019-03-31T09:15:22.529Z,11.17
2019-03-31T09:16:22.574Z,11.10
2019-03-31T09:17:22.519Z,11.15
2019-03-31T09:18:22.500Z,11.15
2019-03-31T09:19:22.495Z,11.25
2019-03-31T09:20:22.471Z,11.25
2019-03-31T09:21:22.486Z,11.21
2019-03-31T09:22:22.458Z,11.28
2019-03-31T09:23:22.438Z,11.25
2019-03-31T09:24:22.427Z,11.18
2019-03-31T09:25:22.419Z,11.04
2019-03-31T09:26:22.428Z,10.97
2019-03-31T09:27:22.393Z,10.79
2019-03-31T09:28:22.378Z,10.74
2019-03-31T09:29:22.364Z,10.61
2019-03-31T09:30:22.362Z,10.48
2019-03-31T09:31:22.372Z,10.44
2019-03-31T09:32:22.336Z,10.29
2019-03-31T09:33:22.333Z,10.33
2019-03-31T09:34:22.322Z,10.27
2019-03-31T09:35:22.311Z,10.20
2019-03-31T09:36:22.320Z,10.22
2019-03-31T09:37:22.287Z,10.15
2019-03-31T09:38:22.271Z,10.18
2019-03-31T09:39:22.267Z,10.17
2019-03-31T09:40:22.245Z,10.29
2019-03-31T09:41:22.264Z,10.27
2019-03-31T09:42:22.237Z,10.34
2019-03-31T09:43:22.217Z,10.30
2019-03-31T09:44:22.202Z,10.38
2019-03-31T09:45:22.187Z,10.42
2019-03-31T09:46:22.218Z,10.42
2019-03-31T09:47:22.175Z,10.36
2019-03-31T09:48:22.217Z,10.33
2019-03-31T09:49:22.145Z,10.27
2019-03-31T09:50:22.129Z,10.29
2019-03-31T09:51:22.122Z,10.27
2019-03-31T09:52:22.132Z,10.23
2019-03-31T09:53:22.110Z,10.20
2019-03-31T09:54:22.097Z,10.07
2019-03-31T09:55:23.169Z,10.07
2019-03-31T09:56:22.065Z,9.96
2019-03-31T09:57:22.165Z,10.02
2019-03-31T09:58:22.051Z,9.91
2019-03-31T09:59:22.043Z,10.01
2019-03-31T10:00:22.058Z,9.99
2019-03-31T10:01:22.012Z,10.01
2019-03-31T10:02:22.013Z,10.02
2019-03-31T10:03:21.997Z,10.09
2019-03-31T10:04:21.987Z,10.12
2019-03-31T10:05:21.975Z,10.15
2019-03-31T10:06:30.061Z,10.11
2019-03-31T10:07:23.906Z,10.17
2019-03-31T10:08:22.497Z,10.18
2019-03-31T10:09:21.923Z,10.26
2019-03-31T10:10:21.911Z,10.30
2019-03-31T10:11:21.903Z,10.42
2019-03-31T10:12:21.939Z,10.60
2019-03-31T10:13:21.872Z,10.51
2019-03-31T10:14:21.859Z,10.53
2019-03-31T10:15:21.858Z,10.61
2019-03-31T10:16:21.872Z,10.70
2019-03-31T10:17:21.874Z,10.74
2019-03-31T10:18:21.824Z,10.81
2019-03-31T10:19:21.820Z,10.78
2019-03-31T10:20:21.793Z,10.92
2019-03-31T10:21:21.791Z,10.88
2019-03-31T10:22:21.801Z,11.07
2019-03-31T10:23:21.793Z,11.09
2019-03-31T10:24:21.751Z,11.02
2019-03-31T10:25:21.747Z,11.11
2019-03-31T10:26:31.759Z,11.15
2019-03-31T10:27:22.715Z,11.19
2019-03-31T10:28:21.730Z,11.25
2019-03-31T10:29:21.688Z,11.28
2019-03-31T10:30:21.686Z,11.29
2019-03-31T10:31:21.673Z,11.36
2019-03-31T10:32:21.668Z,11.43
2019-03-31T10:33:21.678Z,11.46
2019-03-31T10:34:21.635Z,11.47
2019-03-31T10:35:21.622Z,11.52
2019-03-31T10:36:21.690Z,11.61
2019-03-31T10:37:21.604Z,11.57
2019-03-31T10:38:21.626Z,11.47
2019-03-31T10:39:21.583Z,11.29
2019-03-31T10:40:21.575Z,11.28
2019-03-31T10:41:21.566Z,11.35
2019-03-31T10:42:21.566Z,11.40
2019-03-31T10:43:21.572Z,11.54
2019-03-31T10:44:21.537Z,11.69
2019-03-31T10:45:21.593Z,11.80
2019-03-31T10:46:21.500Z,11.90
2019-03-31T10:47:21.497Z,11.95
2019-03-31T10:48:21.562Z,11.83
2019-03-31T10:49:21.489Z,11.73
2019-03-31T10:50:21.457Z,11.65
2019-03-31T10:51:21.446Z,11.72
2019-03-31T10:52:21.432Z,11.55
2019-03-31T10:53:21.440Z,11.51
2019-03-31T10:54:21.442Z,11.29
2019-03-31T10:55:21.404Z,11.11
2019-03-31T10:56:21.396Z,11.10
2019-03-31T10:57:21.379Z,11.11
2019-03-31T10:58:21.364Z,11.06
2019-03-31T10:59:21.389Z,11.10
2019-03-31T11:00:21.343Z,11.14
2019-03-31T11:01:21.345Z,11.22
2019-03-31T11:02:21.321Z,11.33
2019-03-31T11:03:21.311Z,11.25
2019-03-31T11:04:21.318Z,11.42
2019-03-31T11:05:21.300Z,11.33
2019-03-31T11:06:21.282Z,11.33
2019-03-31T11:07:21.270Z,11.29
2019-03-31T11:08:21.252Z,11.40
2019-03-31T11:09:21.256Z,11.49
2019-03-31T11:10:21.229Z,11.55
2019-03-31T11:11:21.214Z,11.57
2019-03-31T11:12:21.226Z,11.54
2019-03-31T11:13:21.201Z,11.46
2019-03-31T11:14:21.198Z,11.55
2019-03-31T11:15:21.182Z,13.29
2019-03-31T11:16:21.163Z,15.03
2019-03-31T11:17:21.158Z,16.53
2019-03-31T11:18:21.138Z,17.78
2019-03-31T11:19:21.156Z,18.88
2019-03-31T11:20:21.127Z,19.62
2019-03-31T11:21:21.110Z,20.05
2019-03-31T11:22:21.153Z,20.58
2019-03-31T11:23:21.091Z,20.85
2019-03-31T11:24:21.179Z,21.40
2019-03-31T11:25:24.986Z,21.19
2019-03-31T11:26:22.064Z,21.35
2019-03-31T11:27:21.050Z,21.94
2019-03-31T11:28:21.032Z,21.25
2019-03-31T11:29:21.023Z,21.65
2019-03-31T11:30:21.025Z,22.37
2019-03-31T11:31:21.547Z,22.75
2019-03-31T11:32:20.993Z,23.12
2019-03-31T11:33:20.977Z,21.84
2019-03-31T11:34:20.971Z,22.82
2019-03-31T11:35:20.972Z,22.92
2019-03-31T11:36:20.940Z,22.85
2019-03-31T11:37:20.938Z,23.28
2019-03-31T11:38:20.962Z,23.13
2019-03-31T11:39:20.928Z,23.58
2019-03-31T11:40:20.967Z,23.02
2019-03-31T11:41:20.896Z,22.80
2019-03-31T11:42:20.892Z,21.04
2019-03-31T11:43:20.887Z,19.54
2019-03-31T11:44:20.854Z,18.20
2019-03-31T11:45:20.873Z,17.40
2019-03-31T11:46:20.844Z,16.49
2019-03-31T11:47:20.869Z,15.94
2019-03-31T11:48:20.826Z,15.65
2019-03-31T11:49:20.804Z,15.47
2019-03-31T11:50:20.857Z,15.47
2019-03-31T11:51:20.781Z,15.60
2019-03-31T11:52:20.783Z,15.43
2019-03-31T11:53:20.765Z,15.20
2019-03-31T11:54:20.764Z,15.76
2019-03-31T11:55:20.761Z,15.39
2019-03-31T11:56:20.746Z,15.17
2019-03-31T11:57:20.724Z,15.14
2019-03-31T11:58:20.720Z,14.96
2019-03-31T11:59:21.113Z,14.91
2019-03-31T12:00:20.727Z,14.51
2019-03-31T12:01:20.674Z,13.99
2019-03-31T12:02:27.092Z,13.75
2019-03-31T12:03:21.651Z,13.66
2019-03-31T12:04:20.645Z,13.48
2019-03-31T12:05:20.658Z,13.41
2019-03-31T12:06:20.618Z,13.70
2019-03-31T12:07:27.776Z,15.53
2019-03-31T12:08:21.597Z,15.53
2019-03-31T12:09:20.593Z,15.50
2019-03-31T12:10:20.599Z,15.71
2019-03-31T12:11:20.635Z,16.61
2019-03-31T12:12:20.552Z,18.76
2019-03-31T12:13:20.555Z,19.29
2019-03-31T12:14:20.524Z,18.99
2019-03-31T12:15:20.529Z,18.21
2019-03-31T12:16:20.507Z,17.66
2019-03-31T12:17:20.494Z,17.37
2019-03-31T12:18:20.519Z,17.00
2019-03-31T12:19:20.482Z,16.71
2019-03-31T12:20:20.536Z,16.41
2019-03-31T12:21:20.460Z,18.58
2019-03-31T12:22:20.440Z,20.08
2019-03-31T12:23:20.434Z,20.32
2019-03-31T12:24:20.488Z,20.57
2019-03-31T12:25:20.470Z,21.03
2019-03-31T12:26:20.414Z,21.62
2019-03-31T12:27:20.394Z,22.14
2019-03-31T12:28:21.071Z,22.58
2019-03-31T12:29:20.370Z,22.49
2019-03-31T12:30:20.350Z,23.00
2019-03-31T12:31:20.608Z,22.95
2019-03-31T12:32:20.336Z,23.23
2019-03-31T12:33:20.337Z,23.55
2019-03-31T12:34:20.308Z,23.57
2019-03-31T12:35:20.355Z,22.86
2019-03-31T12:36:20.324Z,22.43
2019-03-31T12:37:20.281Z,23.31
2019-03-31T12:38:20.270Z,23.95
2019-03-31T12:39:20.252Z,24.32
2019-03-31T12:40:20.260Z,24.71
2019-03-31T12:41:20.251Z,24.64
2019-03-31T12:42:20.226Z,24.49
2019-03-31T12:43:20.213Z,24.24
2019-03-31T12:44:20.215Z,24.55
2019-03-31T12:45:20.220Z,23.78
2019-03-31T12:46:20.181Z,22.79
2019-03-31T12:47:20.199Z,23.10
2019-03-31T12:48:20.167Z,23.84
2019-03-31T12:49:20.155Z,24.68
2019-03-31T12:50:20.833Z,25.58
2019-03-31T12:51:20.181Z,25.80
2019-03-31T12:52:20.142Z,26.10
2019-03-31T12:53:20.122Z,24.67
2019-03-31T12:54:20.111Z,25.33
2019-03-31T12:55:20.105Z,26.35
2019-03-31T12:56:20.092Z,26.85
2019-03-31T12:57:20.114Z,25.42
2019-03-31T12:58:20.071Z,22.62
2019-03-31T12:59:20.074Z,22.03
2019-03-31T13:00:20.069Z,22.76
2019-03-31T13:01:20.095Z,21.83
2019-03-31T13:02:20.149Z,21.12